Time;durP1;ratioP1;P1;durP2;ratioP2;P2;SDS_P1;SDS_P2;PMS_P1;PMS_P2;Temp;Humidity;BMP_temperature;BMP_pressure;BME280_temperature;BME280_humidity;BME280_pressure;Samples;Min_cycle;Max_cycle;Signal;HPM_P1;HPM_P2
2022/10/28 00:00:05;0.00;0.00;0.62;0.00;0.00;0.62;2.00;1.03;;;29.30;30.50;;;;;;2261701;61;20362;-67
2022/10/28 00:02:50;0.00;0.00;0.62;0.00;0.00;0.62;1.60;0.90;;;29.30;29.90;;;;;;2261277;61;20365;-66
2022/10/28 00:05:34;0.00;0.00;0.62;0.00;0.00;0.62;1.70;1.20;;;29.30;30.00;;;;;;2261992;61;20381;-67
2022/10/28 00:08:19;0.00;0.00;0.62;0.00;0.00;0.62;3.93;1.00;;;29.30;29.90;;;;;;2261723;61;20401;-67
2022/10/28 00:11:07;0.00;0.00;0.62;0.00;0.00;0.62;2.10;1.00;;;29.30;29.90;;;;;;2261342;61;20393;-72
2022/10/28 00:13:55;0.00;0.00;0.62;0.00;0.00;0.62;1.90;1.50;;;29.30;30.00;;;;;;2261999;61;20378;-72
2022/10/28 00:16:40;0.00;0.00;0.62;0.00;0.00;0.62;1.70;1.00;;;29.30;30.00;;;;;;2261785;61;20603;-70
2022/10/28 00:19:24;0.00;0.00;0.62;0.00;0.00;0.62;1.30;0.80;;;29.30;30.00;;;;;;2261616;61;20378;-72
2022/10/28 00:22:09;0.00;0.00;0.62;0.00;0.00;0.62;1.77;1.03;;;29.30;30.00;;;;;;2261699;61;20385;-71
2022/10/28 00:24:54;0.00;0.00;0.62;0.00;0.00;0.62;1.40;0.90;;;29.30;30.00;;;;;;2261402;61;20650;-70
2022/10/28 00:27:38;0.00;0.00;0.62;0.00;0.00;0.62;5.53;1.10;;;29.30;30.00;;;;;;2263156;61;20475;-71
2022/10/28 00:30:24;0.00;0.00;0.62;0.00;0.00;0.62;2.27;1.43;;;29.30;30.00;;;;;;2265619;61;20434;-72
2022/10/28 00:33:09;0.00;0.00;0.62;0.00;0.00;0.62;1.43;0.90;;;29.30;30.00;;;;;;2265142;61;20365;-70
2022/10/28 00:35:53;0.00;0.00;0.62;0.00;0.00;0.62;1.80;1.00;;;29.30;30.00;;;;;;2265905;61;20380;-71
2022/10/28 00:38:40;0.00;0.00;0.62;0.00;0.00;0.62;1.70;1.07;;;29.30;30.00;;;;;;2265600;61;20436;-70
2022/10/28 00:41:27;0.00;0.00;0.62;0.00;0.00;0.62;2.00;1.40;;;29.30;30.00;;;;;;2265419;61;20364;-76
2022/10/28 00:44:53;0.00;0.00;0.62;0.00;0.00;0.62;2.30;1.43;;;29.30;30.00;;;;;;2265851;61;20468;-76
2022/10/28 00:47:56;0.00;0.00;0.62;0.00;0.00;0.62;2.80;1.77;;;29.30;29.90;;;;;;2265239;61;20357;-74
2022/10/28 00:50:46;0.00;0.00;0.62;0.00;0.00;0.62;1.83;1.20;;;29.20;29.90;;;;;;2266018;61;20388;-74
2022/10/28 00:53:31;0.00;0.00;0.62;0.00;0.00;0.62;2.00;1.57;;;29.20;29.90;;;;;;2265468;61;20403;-72
2022/10/28 00:56:17;0.00;0.00;0.62;0.00;0.00;0.62;2.40;1.60;;;29.20;29.90;;;;;;2265240;61;20381;-72
2022/10/28 00:59:08;0.00;0.00;0.62;0.00;0.00;0.62;2.50;1.70;;;29.20;29.80;;;;;;2265899;61;20690;-72
2022/10/28 01:01:53;0.00;0.00;0.62;0.00;0.00;0.62;3.23;2.00;;;29.20;29.80;;;;;;2265476;61;20717;-74
2022/10/28 01:04:40;0.00;0.00;0.62;0.00;0.00;0.62;3.70;2.20;;;29.20;29.80;;;;;;2265786;61;20424;-76
2022/10/28 01:07:26;0.00;0.00;0.62;0.00;0.00;0.62;3.60;2.10;;;29.20;29.80;;;;;;2265460;61;20387;-76
2022/10/28 01:10:12;0.00;0.00;0.62;0.00;0.00;0.62;3.10;2.40;;;29.10;29.70;;;;;;2265088;61;20408;-74
2022/10/28 01:13:10;0.00;0.00;0.62;0.00;0.00;0.62;5.10;2.77;;;29.10;29.60;;;;;;2265972;61;20584;-74
2022/10/28 01:16:03;0.00;0.00;0.62;0.00;0.00;0.62;4.37;2.43;;;29.10;29.60;;;;;;2265389;61;20372;-73
2022/10/28 01:18:59;0.00;0.00;0.62;0.00;0.00;0.62;5.13;2.67;;;29.00;29.60;;;;;;2265610;61;20368;-74
2022/10/28 01:22:11;0.00;0.00;0.62;0.00;0.00;0.62;3.90;2.63;;;29.00;29.70;;;;;;2265458;61;20357;-75
2022/10/28 01:25:31;0.00;0.00;0.62;0.00;0.00;0.62;4.57;3.07;;;28.90;29.60;;;;;;2264959;61;20389;-73
2022/10/28 01:29:01;0.00;0.00;0.62;0.00;0.00;0.62;4.20;3.13;;;28.90;29.70;;;;;;2265788;61;20407;-77
2022/10/28 01:31:50;0.00;0.00;0.62;0.00;0.00;0.62;6.90;3.50;;;28.80;29.80;;;;;;2263000;61;20388;-73
2022/10/28 01:34:47;0.00;0.00;0.62;0.00;0.00;0.62;8.17;3.10;;;28.80;29.80;;;;;;2265728;61;20444;-74
2022/10/28 01:37:37;0.00;0.00;0.62;0.00;0.00;0.62;4.70;2.80;;;28.70;29.80;;;;;;2265499;61;20422;-76
2022/10/28 01:40:31;0.00;0.00;0.62;0.00;0.00;0.62;5.00;2.83;;;28.70;29.90;;;;;;2265269;61;20353;-73
2022/10/28 01:43:25;0.00;0.00;0.62;0.00;0.00;0.62;3.17;2.87;;;28.60;29.90;;;;;;2264814;61;20349;-74
2022/10/28 01:46:16;0.00;0.00;0.62;0.00;0.00;0.62;3.60;2.40;;;28.60;29.90;;;;;;2264875;61;20423;-77
2022/10/28 01:49:10;0.00;0.00;0.62;0.00;0.00;0.62;3.10;2.80;;;28.50;30.00;;;;;;2265774;61;20373;-76
2022/10/28 01:52:00;0.00;0.00;0.62;0.00;0.00;0.62;5.10;3.20;;;28.50;30.00;;;;;;2265453;61;20361;-75
2022/10/28 01:54:49;0.00;0.00;0.62;0.00;0.00;0.62;3.43;2.53;;;28.50;30.00;;;;;;2264903;61;20389;-72
2022/10/28 01:57:36;0.00;0.00;0.62;0.00;0.00;0.62;5.50;3.13;;;28.40;30.00;;;;;;2265770;61;20361;-74
2022/10/28 02:00:21;0.00;0.00;0.62;0.00;0.00;0.62;5.00;2.90;;;28.40;30.00;;;;;;2265507;61;20380;-76
2022/10/28 02:03:08;0.00;0.00;0.62;0.00;0.00;0.62;4.37;2.97;;;28.40;30.00;;;;;;2265399;61;20361;-70
2022/10/28 02:05:57;0.00;0.00;0.62;0.00;0.00;0.62;4.10;2.90;;;28.30;30.00;;;;;;2265425;61;20385;-76
2022/10/28 02:09:02;0.00;0.00;0.62;0.00;0.00;0.62;5.87;3.50;;;28.30;30.00;;;;;;2265127;61;20372;-74
2022/10/28 02:12:22;0.00;0.00;0.62;0.00;0.00;0.62;5.17;3.17;;;28.20;30.00;;;;;;2265635;61;20722;-75
2022/10/28 02:15:28;0.00;0.00;0.62;0.00;0.00;0.62;3.80;2.90;;;28.20;30.10;;;;;;2265288;61;20473;-72
2022/10/28 02:18:29;0.00;0.00;0.62;0.00;0.00;0.62;5.80;3.50;;;28.20;30.20;;;;;;2265329;61;20729;-73
2022/10/28 02:21:27;0.00;0.00;0.62;0.00;0.00;0.62;6.00;3.10;;;28.10;30.20;;;;;;2265444;61;20400;-75
2022/10/28 02:24:21;0.00;0.00;0.62;0.00;0.00;0.62;5.80;2.83;;;28.10;30.20;;;;;;2264724;61;20443;-73
2022/10/28 02:27:16;0.00;0.00;0.62;0.00;0.00;0.62;4.83;3.10;;;28.10;30.30;;;;;;2265234;61;20419;-74
2022/10/28 02:30:07;0.00;0.00;0.62;0.00;0.00;0.62;5.73;3.30;;;28.10;30.40;;;;;;2265413;61;20397;-72
2022/10/28 02:32:56;0.00;0.00;0.62;0.00;0.00;0.62;3.80;2.93;;;28.00;30.40;;;;;;2264936;61;20438;-74
2022/10/28 02:35:47;0.00;0.00;0.62;0.00;0.00;0.62;4.50;3.20;;;28.00;30.40;;;;;;2264925;61;20419;-77
2022/10/28 02:38:38;0.00;0.00;0.62;0.00;0.00;0.62;5.93;3.63;;;27.90;30.50;;;;;;2264908;61;20402;-73
2022/10/28 02:41:27;0.00;0.00;0.62;0.00;0.00;0.62;7.43;3.23;;;27.90;30.60;;;;;;2265298;61;20479;-75
2022/10/28 02:44:17;0.00;0.00;0.62;0.00;0.00;0.62;3.50;2.53;;;27.90;30.60;;;;;;2265131;61;20360;-72
2022/10/28 02:47:08;0.00;0.00;0.62;0.00;0.00;0.62;4.10;3.00;;;27.80;30.60;;;;;;2264960;61;20349;-72
2022/10/28 02:49:59;0.00;0.00;0.62;0.00;0.00;0.62;4.33;3.23;;;27.80;30.70;;;;;;2265496;61;20599;-74
2022/10/28 02:52:50;0.00;0.00;0.62;0.00;0.00;0.62;9.60;4.10;;;27.70;30.80;;;;;;2265156;61;20360;-73
2022/10/28 02:55:41;0.00;0.00;0.62;0.00;0.00;0.62;8.30;3.57;;;27.70;30.90;;;;;;2266027;61;20408;-76
2022/10/28 02:58:26;0.00;0.00;0.62;0.00;0.00;0.62;3.83;3.13;;;27.60;30.90;;;;;;2266163;61;20368;-73
2022/10/28 03:01:11;0.00;0.00;0.62;0.00;0.00;0.62;5.17;4.00;;;27.60;31.00;;;;;;2265564;61;20376;-74
2022/10/28 03:03:55;0.00;0.00;0.62;0.00;0.00;0.62;6.57;3.00;;;27.50;31.00;;;;;;2266146;61;20419;-75
2022/10/28 03:06:40;0.00;0.00;0.62;0.00;0.00;0.62;5.50;3.40;;;27.50;31.00;;;;;;2265868;61;20357;-76
2022/10/28 03:09:24;0.00;0.00;0.62;0.00;0.00;0.62;7.30;3.13;;;27.40;31.10;;;;;;2265531;61;20376;-73
2022/10/28 03:12:11;0.00;0.00;0.62;0.00;0.00;0.62;5.80;3.43;;;27.40;31.20;;;;;;2266335;61;20360;-74
2022/10/28 03:14:55;0.00;0.00;0.62;0.00;0.00;0.62;4.53;3.03;;;27.40;31.40;;;;;;2265548;61;20492;-74
2022/10/28 03:17:40;0.00;0.00;0.62;0.00;0.00;0.62;6.50;3.33;;;27.40;31.50;;;;;;2266290;61;20729;-72
2022/10/28 03:20:25;0.00;0.00;0.62;0.00;0.00;0.62;3.63;3.20;;;27.30;31.50;;;;;;2265906;61;20356;-72
2022/10/28 03:23:09;0.00;0.00;0.62;0.00;0.00;0.62;6.93;3.87;;;27.30;31.50;;;;;;2264871;61;20365;-74
2022/10/28 03:25:54;0.00;0.00;0.62;0.00;0.00;0.62;5.43;3.27;;;27.30;31.50;;;;;;2266270;61;20576;-74
2022/10/28 03:28:40;0.00;0.00;0.62;0.00;0.00;0.62;5.60;3.60;;;27.30;31.50;;;;;;2265873;61;20361;-76
2022/10/28 03:31:25;0.00;0.00;0.62;0.00;0.00;0.62;6.20;3.73;;;27.20;31.50;;;;;;2265483;61;20379;-73
2022/10/28 03:34:09;0.00;0.00;0.62;0.00;0.00;0.62;3.50;2.87;;;27.20;31.50;;;;;;2266057;61;20399;-73
2022/10/28 03:36:54;0.00;0.00;0.62;0.00;0.00;0.62;6.00;3.30;;;27.20;31.50;;;;;;2265607;61;20361;-73
2022/10/28 03:39:39;0.00;0.00;0.62;0.00;0.00;0.62;7.37;2.87;;;27.20;31.50;;;;;;2265956;61;20373;-73
2022/10/28 03:42:23;0.00;0.00;0.62;0.00;0.00;0.62;5.37;3.20;;;27.10;31.40;;;;;;2265909;61;20437;-76
2022/10/28 03:45:10;0.00;0.00;0.62;0.00;0.00;0.62;7.43;3.80;;;27.10;31.50;;;;;;2265251;61;20377;-75
2022/10/28 03:47:55;0.00;0.00;0.62;0.00;0.00;0.62;4.37;3.03;;;27.10;31.40;;;;;;2266153;61;20407;-76
2022/10/28 03:50:39;0.00;0.00;0.62;0.00;0.00;0.62;5.37;3.03;;;27.00;31.40;;;;;;2265743;61;20388;-76
2022/10/28 03:53:24;0.00;0.00;0.62;0.00;0.00;0.62;4.80;3.03;;;27.00;31.40;;;;;;2265082;61;20361;-74
2022/10/28 03:56:10;0.00;0.00;0.62;0.00;0.00;0.62;5.00;2.80;;;27.00;31.40;;;;;;2266184;61;20596;-73
2022/10/28 03:58:55;0.00;0.00;0.62;0.00;0.00;0.62;7.30;3.73;;;26.90;31.30;;;;;;2265302;61;20383;-74
2022/10/28 04:01:41;0.00;0.00;0.62;0.00;0.00;0.62;5.60;3.10;;;26.90;31.30;;;;;;2265538;61;20438;-74
2022/10/28 04:04:26;0.00;0.00;0.62;0.00;0.00;0.62;4.90;3.23;;;26.90;31.40;;;;;;2265606;61;20397;-73
2022/10/28 04:07:10;0.00;0.00;0.62;0.00;0.00;0.62;5.63;3.20;;;26.90;31.50;;;;;;2265148;61;20403;-75
2022/10/28 04:09:55;0.00;0.00;0.62;0.00;0.00;0.62;4.63;2.97;;;26.90;31.60;;;;;;2265768;61;20784;-74
2022/10/28 04:12:40;0.00;0.00;0.62;0.00;0.00;0.62;5.00;3.10;;;26.80;31.50;;;;;;2265765;61;20517;-75
2022/10/28 04:15:24;0.00;0.00;0.62;0.00;0.00;0.62;4.40;2.77;;;26.80;31.60;;;;;;2265280;61;20447;-76
2022/10/28 04:18:11;0.00;0.00;0.62;0.00;0.00;0.62;4.63;2.70;;;26.80;31.70;;;;;;2266265;61;20353;-75
2022/10/28 04:20:56;0.00;0.00;0.62;0.00;0.00;0.62;9.63;3.30;;;26.80;31.70;;;;;;2266020;61;20365;-74
2022/10/28 04:23:40;0.00;0.00;0.62;0.00;0.00;0.62;6.37;3.00;;;26.80;31.70;;;;;;2265581;61;20360;-73
2022/10/28 04:26:25;0.00;0.00;0.62;0.00;0.00;0.62;3.97;2.50;;;26.80;31.70;;;;;;2265671;61;20409;-72
2022/10/28 04:29:10;0.00;0.00;0.62;0.00;0.00;0.62;4.17;3.00;;;26.80;31.70;;;;;;2265628;61;20380;-75
2022/10/28 04:31:54;0.00;0.00;0.62;0.00;0.00;0.62;3.10;2.60;;;26.80;31.70;;;;;;2266018;61;20393;-76
2022/10/28 04:34:40;0.00;0.00;0.62;0.00;0.00;0.62;4.30;2.67;;;26.80;31.80;;;;;;2265507;61;20373;-72
2022/10/28 04:37:24;0.00;0.00;0.62;0.00;0.00;0.62;4.27;2.83;;;26.90;31.90;;;;;;2265301;61;20369;-73
2022/10/28 04:40:10;0.00;0.00;0.62;0.00;0.00;0.62;6.77;3.30;;;26.90;31.90;;;;;;2265894;61;20601;-73
2022/10/28 04:42:55;0.00;0.00;0.62;0.00;0.00;0.62;5.53;3.10;;;26.90;31.90;;;;;;2265521;61;20438;-74
2022/10/28 04:45:40;0.00;0.00;0.62;0.00;0.00;0.62;2.80;2.40;;;26.80;31.90;;;;;;2265466;61;20458;-74
2022/10/28 04:48:24;0.00;0.00;0.62;0.00;0.00;0.62;5.00;3.17;;;26.80;31.90;;;;;;2265891;61;20361;-76
2022/10/28 04:51:11;0.00;0.00;0.62;0.00;0.00;0.62;4.63;3.40;;;26.90;32.00;;;;;;2265474;61;20409;-74
2022/10/28 04:53:55;0.00;0.00;0.62;0.00;0.00;0.62;4.90;2.37;;;26.90;32.00;;;;;;2265822;61;20684;-77
2022/10/28 04:56:40;0.00;0.00;0.62;0.00;0.00;0.62;4.43;2.73;;;26.90;32.00;;;;;;2265741;61;20356;-74
2022/10/28 04:59:24;0.00;0.00;0.62;0.00;0.00;0.62;6.43;3.20;;;26.90;31.90;;;;;;2265349;61;20412;-74
2022/10/28 05:02:09;0.00;0.00;0.62;0.00;0.00;0.62;3.10;2.80;;;26.90;31.90;;;;;;2265957;61;20372;-76
2022/10/28 05:04:54;0.00;0.00;0.62;0.00;0.00;0.62;3.87;2.83;;;26.90;32.00;;;;;;2265308;61;20455;-73
2022/10/28 05:07:40;0.00;0.00;0.62;0.00;0.00;0.62;3.37;2.57;;;26.90;32.00;;;;;;2265508;61;20383;-72
2022/10/28 05:10:25;0.00;0.00;0.62;0.00;0.00;0.62;4.00;2.80;;;26.90;32.00;;;;;;2265832;61;20451;-73
2022/10/28 05:13:10;0.00;0.00;0.62;0.00;0.00;0.62;6.47;2.73;;;26.90;32.00;;;;;;2265416;61;20392;-67
2022/10/28 05:15:54;0.00;0.00;0.62;0.00;0.00;0.62;3.30;2.50;;;26.90;32.00;;;;;;2265587;61;20816;-68
2022/10/28 05:18:39;0.00;0.00;0.62;0.00;0.00;0.62;4.60;2.70;;;26.90;31.90;;;;;;2265382;61;20388;-66
2022/10/28 05:21:23;0.00;0.00;0.62;0.00;0.00;0.62;3.40;2.97;;;26.90;31.80;;;;;;2265324;61;20352;-68
2022/10/28 05:24:09;0.00;0.00;0.62;0.00;0.00;0.62;4.27;2.87;;;26.90;31.70;;;;;;2265515;61;20812;-69
2022/10/28 05:26:54;0.00;0.00;0.62;0.00;0.00;0.62;4.20;2.60;;;26.90;32.40;;;;;;2265429;61;20596;-64
2022/10/28 05:29:38;0.00;0.00;0.62;0.00;0.00;0.62;4.50;2.63;;;27.00;31.70;;;;;;2265236;61;20647;-64
2022/10/28 05:32:24;0.00;0.00;0.62;0.00;0.00;0.62;4.50;2.73;;;26.90;31.70;;;;;;2265627;61;20730;-65
2022/10/28 05:35:09;0.00;0.00;0.62;0.00;0.00;0.62;3.73;2.57;;;27.00;31.80;;;;;;2265329;61;20377;-65
2022/10/28 05:37:54;0.00;0.00;0.62;0.00;0.00;0.62;4.23;2.83;;;27.00;31.80;;;;;;2265514;61;20720;-66
2022/10/28 05:40:41;0.00;0.00;0.62;0.00;0.00;0.62;3.13;2.40;;;27.00;31.70;;;;;;2265359;61;20770;-65
2022/10/28 05:43:26;0.00;0.00;0.62;0.00;0.00;0.62;3.93;3.20;;;27.00;31.70;;;;;;2265004;61;20369;-66
2022/10/28 05:46:10;0.00;0.00;0.62;0.00;0.00;0.62;4.97;2.90;;;27.00;31.60;;;;;;2265670;61;20373;-64
2022/10/28 05:48:55;0.00;0.00;0.62;0.00;0.00;0.62;3.33;2.30;;;27.00;31.50;;;;;;2265444;61;20361;-66
2022/10/28 05:51:39;0.00;0.00;0.62;0.00;0.00;0.62;4.00;2.73;;;27.10;31.50;;;;;;2265092;61;20404;-65
2022/10/28 05:54:24;0.00;0.00;0.62;0.00;0.00;0.62;10.10;3.00;;;27.10;31.40;;;;;;2265598;61;20384;-65
2022/10/28 05:57:10;0.00;0.00;0.62;0.00;0.00;0.62;5.03;3.17;;;27.10;31.40;;;;;;2265612;61;20605;-66
2022/10/28 05:59:55;0.00;0.00;0.62;0.00;0.00;0.62;5.57;3.23;;;27.10;31.40;;;;;;2265325;61;20829;-65
2022/10/28 06:02:40;0.00;0.00;0.62;0.00;0.00;0.62;3.20;2.27;;;27.10;31.40;;;;;;2265554;61;20709;-66
2022/10/28 06:05:25;0.00;0.00;0.62;0.00;0.00;0.62;3.93;2.77;;;27.10;31.40;;;;;;2265195;61;20440;-65
2022/10/28 06:08:11;0.00;0.00;0.62;0.00;0.00;0.62;3.73;3.00;;;27.10;31.40;;;;;;2265614;61;20369;-65
2022/10/28 06:10:56;0.00;0.00;0.62;0.00;0.00;0.62;3.80;2.80;;;27.10;31.40;;;;;;2265502;61;20408;-65
2022/10/28 06:13:42;0.00;0.00;0.62;0.00;0.00;0.62;3.60;2.40;;;27.10;31.50;;;;;;2264828;61;20430;-65
2022/10/28 06:16:26;0.00;0.00;0.62;0.00;0.00;0.62;4.00;2.80;;;27.10;31.40;;;;;;2265760;61;20388;-65
2022/10/28 06:19:11;0.00;0.00;0.62;0.00;0.00;0.62;3.67;2.93;;;27.10;31.40;;;;;;2265354;61;20365;-65
2022/10/28 06:21:56;0.00;0.00;0.62;0.00;0.00;0.62;3.90;2.63;;;27.10;31.50;;;;;;2265042;61;20361;-65
2022/10/28 06:24:40;0.00;0.00;0.62;0.00;0.00;0.62;4.20;2.77;;;27.20;31.60;;;;;;2265493;61;20835;-65
2022/10/28 06:27:25;0.00;0.00;0.62;0.00;0.00;0.62;2.90;2.57;;;27.20;31.50;;;;;;2265257;61;20403;-65
2022/10/28 06:30:12;0.00;0.00;0.62;0.00;0.00;0.62;3.87;2.43;;;27.20;31.50;;;;;;2265505;61;20423;-65
2022/10/28 06:32:57;0.00;0.00;0.62;0.00;0.00;0.62;4.60;2.50;;;27.20;31.50;;;;;;2265303;61;20416;-65
2022/10/28 06:35:42;0.00;0.00;0.62;0.00;0.00;0.62;4.17;2.50;;;27.20;31.50;;;;;;2264976;61;20418;-64
2022/10/28 06:38:28;0.00;0.00;0.62;0.00;0.00;0.62;4.30;2.20;;;27.20;31.50;;;;;;2265747;61;20380;-65
2022/10/28 06:41:12;0.00;0.00;0.62;0.00;0.00;0.62;3.13;2.60;;;27.20;31.50;;;;;;2265091;61;20341;-65
2022/10/28 06:43:57;0.00;0.00;0.62;0.00;0.00;0.62;3.67;2.70;;;27.20;31.50;;;;;;2264962;61;20365;-65
2022/10/28 06:46:43;0.00;0.00;0.62;0.00;0.00;0.62;2.67;2.00;;;27.20;31.40;;;;;;2265784;61;20472;-64
2022/10/28 06:49:28;0.00;0.00;0.62;0.00;0.00;0.62;5.67;3.10;;;27.20;31.30;;;;;;2265213;61;20384;-66
2022/10/28 06:52:12;0.00;0.00;0.62;0.00;0.00;0.62;5.67;3.67;;;27.20;31.30;;;;;;2265492;61;20377;-66
2022/10/28 06:54:57;0.00;0.00;0.62;0.00;0.00;0.62;3.27;2.50;;;27.20;31.30;;;;;;2264962;61;20799;-66
2022/10/28 06:57:42;0.00;0.00;0.62;0.00;0.00;0.62;4.80;3.63;;;27.20;31.30;;;;;;2264909;61;20439;-64
2022/10/28 07:00:29;0.00;0.00;0.62;0.00;0.00;0.62;3.97;3.00;;;27.30;31.30;;;;;;2265575;61;20385;-65
2022/10/28 07:03:15;0.00;0.00;0.62;0.00;0.00;0.62;3.50;2.60;;;27.30;31.30;;;;;;2264989;61;20380;-64
2022/10/28 07:06:00;0.00;0.00;0.62;0.00;0.00;0.62;3.67;2.57;;;27.20;31.20;;;;;;2264992;61;20448;-64
2022/10/28 07:08:45;0.00;0.00;0.62;0.00;0.00;0.62;3.30;2.57;;;27.30;31.30;;;;;;2265460;61;20756;-66
2022/10/28 07:11:30;0.00;0.00;0.62;0.00;0.00;0.62;3.90;2.40;;;27.30;31.20;;;;;;2265005;61;20408;-66
2022/10/28 07:14:14;0.00;0.00;0.62;0.00;0.00;0.62;5.63;3.27;;;27.30;31.20;;;;;;2264769;61;20440;-66
2022/10/28 07:16:59;0.00;0.00;0.62;0.00;0.00;0.62;3.70;2.60;;;27.30;31.20;;;;;;2265230;61;20361;-66
2022/10/28 07:19:45;0.00;0.00;0.62;0.00;0.00;0.62;3.30;2.70;;;27.40;31.20;;;;;;2264978;61;20391;-66
2022/10/28 07:22:30;0.00;0.00;0.62;0.00;0.00;0.62;4.63;3.30;;;27.30;31.10;;;;;;2265493;61;20365;-66
2022/10/28 07:25:14;0.00;0.00;0.62;0.00;0.00;0.62;3.67;2.70;;;27.40;31.20;;;;;;2265063;61;20496;-64
2022/10/28 07:28:00;0.00;0.00;0.62;0.00;0.00;0.62;3.90;3.17;;;27.40;31.20;;;;;;2265017;61;20364;-66
2022/10/28 07:30:45;0.00;0.00;0.62;0.00;0.00;0.62;3.80;2.70;;;27.40;31.20;;;;;;2265411;61;20431;-66
2022/10/28 07:33:30;0.00;0.00;0.62;0.00;0.00;0.62;4.00;3.13;;;27.40;31.20;;;;;;2265214;61;20364;-66
2022/10/28 07:36:15;0.00;0.00;0.62;0.00;0.00;0.62;4.40;3.10;;;27.40;31.10;;;;;;2265119;61;20381;-66
2022/10/28 07:39:00;0.00;0.00;0.62;0.00;0.00;0.62;4.43;3.23;;;27.40;31.20;;;;;;2265161;61;20368;-66
2022/10/28 07:41:45;0.00;0.00;0.62;0.00;0.00;0.62;6.20;2.83;;;27.40;31.20;;;;;;2265422;61;20735;-64
2022/10/28 07:44:30;0.00;0.00;0.62;0.00;0.00;0.62;5.10;3.30;;;27.40;31.10;;;;;;2265884;61;20419;-65
2022/10/28 07:47:16;0.00;0.00;0.62;0.00;0.00;0.62;4.20;3.00;;;27.40;31.00;;;;;;2265835;61;20360;-65
2022/10/28 07:50:01;0.00;0.00;0.62;0.00;0.00;0.62;6.43;3.60;;;27.40;31.10;;;;;;2265334;61;20392;-66
2022/10/28 07:52:47;0.00;0.00;0.62;0.00;0.00;0.62;5.67;3.63;;;27.40;31.00;;;;;;2266093;61;20362;-66
2022/10/28 07:55:32;0.00;0.00;0.62;0.00;0.00;0.62;5.43;3.30;;;27.50;31.10;;;;;;2265720;61;20385;-64
2022/10/28 07:58:17;0.00;0.00;0.62;0.00;0.00;0.62;6.07;2.90;;;27.40;31.00;;;;;;2265781;61;20732;-65
2022/10/28 08:01:02;0.00;0.00;0.62;0.00;0.00;0.62;5.47;2.70;;;27.40;31.00;;;;;;2265907;61;20404;-65
2022/10/28 08:03:47;0.00;0.00;0.62;0.00;0.00;0.62;3.83;2.53;;;27.40;31.00;;;;;;2265529;61;20416;-69
2022/10/28 08:06:34;0.00;0.00;0.62;0.00;0.00;0.62;5.33;2.80;;;27.40;31.00;;;;;;2265946;61;20476;-73
2022/10/28 08:09:20;0.00;0.00;0.62;0.00;0.00;0.62;6.03;2.73;;;27.50;31.10;;;;;;2265822;61;20361;-70
2022/10/28 08:12:05;0.00;0.00;0.62;0.00;0.00;0.62;4.97;2.97;;;27.50;31.20;;;;;;2265566;61;20693;-70
2022/10/28 08:14:50;0.00;0.00;0.62;0.00;0.00;0.62;3.73;2.50;;;27.50;31.20;;;;;;2265892;61;20442;-71
2022/10/28 08:17:35;0.00;0.00;0.62;0.00;0.00;0.62;5.00;3.40;;;27.50;31.20;;;;;;2265320;61;20356;-72
2022/10/28 08:20:19;0.00;0.00;0.62;0.00;0.00;0.62;5.90;3.23;;;27.50;31.30;;;;;;2265449;61;20395;-72
2022/10/28 08:23:04;0.00;0.00;0.62;0.00;0.00;0.62;4.20;2.73;;;27.50;31.40;;;;;;2265469;61;20828;-69
2022/10/28 08:25:51;0.00;0.00;0.62;0.00;0.00;0.62;3.80;2.70;;;27.50;31.40;;;;;;2265241;61;20409;-67
2022/10/28 08:28:36;0.00;0.00;0.62;0.00;0.00;0.62;4.50;2.90;;;27.60;31.40;;;;;;2266099;61;20428;-70
2022/10/28 08:31:20;0.00;0.00;0.62;0.00;0.00;0.62;4.70;2.70;;;27.60;31.40;;;;;;2265436;61;20419;-67
2022/10/28 08:34:05;0.00;0.00;0.62;0.00;0.00;0.62;4.50;2.43;;;27.60;31.40;;;;;;2265367;61;20365;-69
2022/10/28 08:36:50;0.00;0.00;0.62;0.00;0.00;0.62;3.10;2.80;;;27.60;31.40;;;;;;2266025;61;20399;-72
2022/10/28 08:39:34;0.00;0.00;0.62;0.00;0.00;0.62;3.20;2.60;;;27.60;31.40;;;;;;2266063;61;20440;-73
2022/10/28 08:42:34;0.00;0.00;0.62;0.00;0.00;0.62;3.20;2.57;;;27.70;31.50;;;;;;2265555;61;20357;-69
2022/10/28 08:45:43;0.00;0.00;0.62;0.00;0.00;0.62;5.13;2.30;;;27.70;31.50;;;;;;2265652;61;20412;-69
2022/10/28 08:48:32;0.00;0.00;0.62;0.00;0.00;0.62;3.60;2.90;;;27.70;31.40;;;;;;2265336;61;20755;-71
2022/10/28 08:51:21;0.00;0.00;0.62;0.00;0.00;0.62;4.30;2.57;;;27.70;31.30;;;;;;2265990;61;20424;-67
2022/10/28 08:54:16;0.00;0.00;0.62;0.00;0.00;0.62;6.07;2.90;;;27.70;31.30;;;;;;2265323;61;20447;-70
2022/10/28 08:57:04;0.00;0.00;0.62;0.00;0.00;0.62;5.20;2.67;;;27.80;31.40;;;;;;2265371;61;20404;-70
2022/10/28 08:59:53;0.00;0.00;0.62;0.00;0.00;0.62;4.70;2.57;;;27.80;31.30;;;;;;2265807;61;20396;-72
2022/10/28 09:02:53;0.00;0.00;0.62;0.00;0.00;0.62;3.70;2.53;;;27.80;31.30;;;;;;2265521;61;20369;-67
2022/10/28 09:05:39;0.00;0.00;0.62;0.00;0.00;0.62;3.60;2.40;;;27.80;32.00;;;;;;2265925;61;20423;-66
2022/10/28 09:08:27;0.00;0.00;0.62;0.00;0.00;0.62;3.93;2.67;;;27.90;31.40;;;;;;2265465;61;20388;-71
2022/10/28 09:12:04;0.00;0.00;0.62;0.00;0.00;0.62;4.97;2.93;;;27.90;31.40;;;;;;2265239;61;20384;-69
2022/10/28 09:15:12;0.00;0.00;0.62;0.00;0.00;0.62;2.53;2.10;;;27.90;31.40;;;;;;2265129;61;20385;-72
2022/10/28 09:18:12;0.00;0.00;0.62;0.00;0.00;0.62;2.57;2.13;;;27.90;31.30;;;;;;2265379;61;20392;-73
2022/10/28 09:21:03;0.00;0.00;0.62;0.00;0.00;0.62;3.13;2.80;;;28.00;31.40;;;;;;2265657;61;20421;-67
2022/10/28 09:23:55;0.00;0.00;0.62;0.00;0.00;0.62;3.63;2.43;;;28.00;31.40;;;;;;2265452;61;20377;-72
2022/10/28 09:26:51;0.00;0.00;0.62;0.00;0.00;0.62;4.40;2.30;;;28.00;31.30;;;;;;2265033;61;20361;-71
2022/10/28 09:29:46;0.00;0.00;0.62;0.00;0.00;0.62;4.23;2.50;;;28.10;31.40;;;;;;2265380;61;20354;-72
2022/10/28 09:32:42;0.00;0.00;0.62;0.00;0.00;0.62;5.80;2.70;;;28.10;31.40;;;;;;2265553;61;20421;-70
2022/10/28 09:35:32;0.00;0.00;0.62;0.00;0.00;0.62;3.20;2.67;;;28.10;31.30;;;;;;2265617;61;20515;-70
2022/10/28 09:38:26;0.00;0.00;0.62;0.00;0.00;0.62;2.50;2.27;;;28.10;31.40;;;;;;2265553;61;20357;-71
2022/10/28 09:41:17;0.00;0.00;0.62;0.00;0.00;0.62;3.50;2.83;;;28.10;31.30;;;;;;2265212;61;20602;-70
2022/10/28 09:44:11;0.00;0.00;0.62;0.00;0.00;0.62;4.10;2.60;;;28.20;31.40;;;;;;2265182;61;20441;-71
2022/10/28 09:46:59;0.00;0.00;0.62;0.00;0.00;0.62;4.17;2.33;;;28.20;31.30;;;;;;2265484;61;20398;-70
2022/10/28 09:49:47;0.00;0.00;0.62;0.00;0.00;0.62;5.30;3.30;;;28.30;31.30;;;;;;2265392;61;20744;-69
2022/10/28 09:52:37;0.00;0.00;0.62;0.00;0.00;0.62;3.87;2.63;;;28.30;31.30;;;;;;2265598;61;20365;-72
2022/10/28 09:55:23;0.00;0.00;0.62;0.00;0.00;0.62;3.87;2.80;;;28.30;31.30;;;;;;2264839;61;20381;-67
2022/10/28 09:58:10;0.00;0.00;0.62;0.00;0.00;0.62;6.03;2.70;;;28.40;31.30;;;;;;2265730;61;20356;-69
2022/10/28 10:00:56;0.00;0.00;0.62;0.00;0.00;0.62;4.60;2.60;;;28.40;31.20;;;;;;2265415;61;20740;-69
2022/10/28 10:03:44;0.00;0.00;0.62;0.00;0.00;0.62;4.37;2.70;;;28.40;31.20;;;;;;2264647;61;20396;-70
2022/10/28 10:06:35;0.00;0.00;0.62;0.00;0.00;0.62;3.30;2.47;;;28.50;31.20;;;;;;2265810;61;20749;-69
2022/10/28 10:09:25;0.00;0.00;0.62;0.00;0.00;0.62;3.77;2.50;;;28.50;31.20;;;;;;2265248;61;20369;-71
2022/10/28 10:12:12;0.00;0.00;0.62;0.00;0.00;0.62;3.73;2.30;;;28.50;31.20;;;;;;2265576;61;20395;-68
2022/10/28 10:14:58;0.00;0.00;0.62;0.00;0.00;0.62;4.20;2.40;;;28.50;31.20;;;;;;2265297;61;20458;-70
2022/10/28 10:17:45;0.00;0.00;0.62;0.00;0.00;0.62;5.80;2.43;;;28.60;31.90;;;;;;2264919;61;20384;-69
2022/10/28 10:20:48;0.00;0.00;0.62;0.00;0.00;0.62;6.23;2.80;;;28.60;31.20;;;;;;2265751;61;20493;-67
2022/10/28 10:23:36;0.00;0.00;0.62;0.00;0.00;0.62;3.67;3.03;;;28.70;31.20;;;;;;2265283;61;20352;-71
2022/10/28 10:26:21;0.00;0.00;0.62;0.00;0.00;0.62;4.57;2.03;;;28.70;31.20;;;;;;2265231;61;20599;-70
2022/10/28 10:29:12;0.00;0.00;0.62;0.00;0.00;0.62;3.00;2.27;;;28.70;31.30;;;;;;2265436;61;20365;-68
2022/10/28 10:32:06;0.00;0.00;0.62;0.00;0.00;0.62;5.17;2.73;;;28.80;31.30;;;;;;2265019;61;20628;-70
2022/10/28 10:35:00;0.00;0.00;0.62;0.00;0.00;0.62;4.10;2.50;;;28.80;31.30;;;;;;2265571;61;20400;-72
2022/10/28 10:37:47;0.00;0.00;0.62;0.00;0.00;0.62;3.13;2.63;;;28.80;31.20;;;;;;2265300;61;20365;-71
2022/10/28 10:40:38;0.00;0.00;0.62;0.00;0.00;0.62;4.80;2.60;;;28.90;31.30;;;;;;2264971;61;20573;-70
2022/10/28 10:43:29;0.00;0.00;0.62;0.00;0.00;0.62;3.27;2.33;;;28.90;31.20;;;;;;2265258;61;20364;-72
2022/10/28 10:46:16;0.00;0.00;0.62;0.00;0.00;0.62;3.80;2.50;;;29.00;31.20;;;;;;2264517;61;20454;-67
2022/10/28 10:49:13;0.00;0.00;0.62;0.00;0.00;0.62;4.20;2.60;;;29.00;31.20;;;;;;2265451;61;20372;-69
2022/10/28 10:52:01;0.00;0.00;0.62;0.00;0.00;0.62;4.60;2.80;;;29.00;31.10;;;;;;2265464;61;20408;-68
2022/10/28 10:55:01;0.00;0.00;0.62;0.00;0.00;0.62;4.00;2.73;;;29.10;31.10;;;;;;2264759;61;20508;-68
2022/10/28 10:57:48;0.00;0.00;0.62;0.00;0.00;0.62;3.20;2.30;;;29.10;31.10;;;;;;2265663;61;20392;-68
2022/10/28 11:00:42;0.00;0.00;0.62;0.00;0.00;0.62;6.77;2.80;;;29.20;31.00;;;;;;2265136;61;20812;-68
2022/10/28 11:03:33;0.00;0.00;0.62;0.00;0.00;0.62;6.03;3.73;;;29.20;30.90;;;;;;2264509;61;21059;-72